首页
METAR-TAF:

METAR-TAF

机场 :

拉奥罗拉国际机场

瓜地馬拉, 危地马拉

纬度: 14-35N, 经度: 090-31W, 海拔: 1489米

当前天气观测

该预报发布于8分钟前的03:00 UTC
风速14节,风向北转西北
温度 13°C
湿度 77%
气压 1028 hPa
能见度10公里或以上
少量云层高于20000英尺

METAR: MGGT 220300Z 34014KT CAVOK 13/09 Q1028 A3036 FEW200

时间: 21:08 (03:08 UTC)

预报

预报有效从22日的 00点(UTC)到 22日的 24点(UTC)
风速12节,风向
能见度10公里或以上
少量云层高于1600英尺
成为
从 22日的 08点(UTC)到 22日的 10点(UTC)
散云层高于1200英尺
成为
从 22日的 14点(UTC)到 22日的 16点(UTC)
能见度10公里或以上
1500米以下无云,无积雨云
成为
从 22日的 19点(UTC)到 22日的 21点(UTC)
少量云层高于2000英尺

TAF: MGGT 2200/2224 36012KT 9999 FEW016 TX21/2220Z TN12/2212Z BECMG 2208/2210 SCT012 BECMG 2214/2216 CAVOK BECMG 2219/2221 FEW020

超过4000个机场的气象观测和天气预报(METAR&TAF报告)。

可查询的气象台以黄色和红色小点在地图上表示。

将鼠标移到小点上方,可查看气象台名称。

然后点击查看天气观测和预报。

如需切换地图:点击带黑十字的绿色按钮放大地图;点击带横线的绿色按钮缩小地图;或者点击绿色箭头查看邻近地区的地图。


METAR-TAF: